createdAt,value
2023-03-24T00:00:02.821Z,10.93
2023-03-24T00:02:37.587Z,10.92
2023-03-24T00:05:05.578Z,10.92
2023-03-24T00:07:35.264Z,10.93
2023-03-24T00:10:02.353Z,10.94
2023-03-24T00:12:28.885Z,10.94
2023-03-24T00:14:55.343Z,10.95
2023-03-24T00:17:25.266Z,10.95
2023-03-24T00:19:52.414Z,10.95
2023-03-24T00:22:21.579Z,10.94
2023-03-24T00:24:49.604Z,10.96
2023-03-24T00:27:17.655Z,10.97
2023-03-24T00:29:44.235Z,10.96
2023-03-24T00:32:10.933Z,10.97
2023-03-24T00:34:38.336Z,10.96
2023-03-24T00:37:06.402Z,10.98
2023-03-24T00:39:33.492Z,10.98
2023-03-24T00:42:01.707Z,10.98
2023-03-24T00:44:28.446Z,10.98
2023-03-24T00:46:57.938Z,11.00
2023-03-24T00:49:42.386Z,11.00
2023-03-24T00:52:14.622Z,11.01
2023-03-24T00:54:41.679Z,11.01
2023-03-24T00:57:08.557Z,11.03
2023-03-24T00:59:42.359Z,11.06
2023-03-24T01:02:12.713Z,11.07
2023-03-24T01:04:41.126Z,11.09
2023-03-24T01:07:10.801Z,11.13
2023-03-24T01:09:38.064Z,11.13
2023-03-24T01:12:05.207Z,11.11
2023-03-24T01:14:32.801Z,11.11
2023-03-24T01:16:59.907Z,11.12
2023-03-24T01:19:26.880Z,11.14
2023-03-24T01:21:54.373Z,11.18
2023-03-24T01:24:25.429Z,11.20
2023-03-24T01:26:52.342Z,11.22
2023-03-24T01:29:18.818Z,11.22
2023-03-24T01:31:45.436Z,11.21
2023-03-24T01:34:12.018Z,11.23
2023-03-24T01:36:38.440Z,11.22
2023-03-24T01:39:05.237Z,11.24
2023-03-24T01:41:37.782Z,11.24
2023-03-24T01:44:27.814Z,11.24
2023-03-24T01:46:56.246Z,11.27
2023-03-24T01:49:25.850Z,11.24
2023-03-24T01:51:57.026Z,11.26
2023-03-24T01:54:36.746Z,11.27
2023-03-24T01:57:14.171Z,11.29
2023-03-24T01:59:47.006Z,11.30
2023-03-24T02:02:22.060Z,11.30
2023-03-24T02:05:02.907Z,11.30
2023-03-24T02:07:43.470Z,11.34
2023-03-24T02:10:14.667Z,11.32
2023-03-24T02:12:42.154Z,11.33
2023-03-24T02:15:11.004Z,11.33
2023-03-24T02:18:02.384Z,11.35
2023-03-24T02:20:46.022Z,11.34
2023-03-24T02:23:21.698Z,11.34
2023-03-24T02:26:26.360Z,11.34
2023-03-24T02:29:12.006Z,11.33
2023-03-24T02:32:03.774Z,11.34
2023-03-24T02:35:00.357Z,11.32
2023-03-24T02:38:11.795Z,11.31
2023-03-24T02:40:49.203Z,11.22
2023-03-24T02:43:34.014Z,11.12
2023-03-24T02:46:20.768Z,11.04
2023-03-24T02:49:07.481Z,10.98
2023-03-24T02:51:44.652Z,10.95
2023-03-24T02:54:31.786Z,10.93
2023-03-24T02:57:16.786Z,10.90
2023-03-24T03:00:21.392Z,10.88
2023-03-24T03:03:41.593Z,10.79
2023-03-24T03:06:17.658Z,10.62
2023-03-24T03:08:47.594Z,10.46
2023-03-24T03:11:16.244Z,10.32
2023-03-24T03:13:50.441Z,10.23
2023-03-24T03:16:38.168Z,10.13
2023-03-24T03:19:22.028Z,10.03
2023-03-24T03:21:50.618Z,9.98
2023-03-24T03:24:34.957Z,9.94
2023-03-24T03:27:16.760Z,9.90
2023-03-24T03:29:48.199Z,9.86
2023-03-24T03:32:21.628Z,9.84
2023-03-24T03:34:56.602Z,9.79
2023-03-24T03:37:30.635Z,9.75
2023-03-24T03:40:20.569Z,9.67
2023-03-24T03:42:52.211Z,9.62
2023-03-24T03:45:18.776Z,9.55
2023-03-24T03:47:46.000Z,9.50
2023-03-24T03:50:12.906Z,9.48
2023-03-24T03:52:41.508Z,9.48
2023-03-24T03:55:09.368Z,9.52
2023-03-24T03:57:36.467Z,9.51
2023-03-24T04:00:15.771Z,9.54
2023-03-24T04:03:05.315Z,9.56
2023-03-24T04:05:53.862Z,9.57
2023-03-24T04:08:33.030Z,9.59
2023-03-24T04:11:38.283Z,9.59
2023-03-24T04:14:29.191Z,9.58
2023-03-24T04:17:25.446Z,9.56
2023-03-24T04:20:06.295Z,9.53
2023-03-24T04:22:48.559Z,9.52
2023-03-24T04:25:49.856Z,9.50
2023-03-24T04:28:42.939Z,9.52
2023-03-24T04:31:23.646Z,9.51
2023-03-24T04:33:58.268Z,9.49
2023-03-24T04:36:42.154Z,9.47
2023-03-24T04:39:28.289Z,9.46
2023-03-24T04:41:59.942Z,9.44
2023-03-24T04:44:30.132Z,9.42
2023-03-24T04:47:24.494Z,9.43
2023-03-24T04:50:11.079Z,9.41
2023-03-24T04:52:42.559Z,9.41
2023-03-24T04:55:32.260Z,9.40
2023-03-24T04:57:59.123Z,9.40
2023-03-24T05:00:25.951Z,9.37
2023-03-24T05:02:52.549Z,9.37
2023-03-24T05:05:25.016Z,9.33
2023-03-24T05:07:51.821Z,9.33
2023-03-24T05:10:21.782Z,9.34
2023-03-24T05:12:53.175Z,9.33
2023-03-24T05:15:19.680Z,9.32
2023-03-24T05:17:51.636Z,9.32
2023-03-24T05:20:19.397Z,9.30
2023-03-24T05:22:50.576Z,9.29
2023-03-24T05:25:17.231Z,9.26
2023-03-24T05:27:44.183Z,9.24
2023-03-24T05:30:23.455Z,9.21
2023-03-24T05:32:53.820Z,9.20
2023-03-24T05:35:20.566Z,9.19
2023-03-24T05:37:47.067Z,9.18
2023-03-24T05:40:13.665Z,9.17
2023-03-24T05:42:49.411Z,9.15
2023-03-24T05:45:16.677Z,9.13
2023-03-24T05:47:43.471Z,9.12
2023-03-24T05:50:10.845Z,9.11
2023-03-24T05:52:37.573Z,9.13
2023-03-24T05:55:32.125Z,9.18
2023-03-24T05:58:07.344Z,9.19
2023-03-24T06:00:44.909Z,9.21
2023-03-24T06:03:18.283Z,9.24
2023-03-24T06:05:52.719Z,9.24
2023-03-24T06:08:19.401Z,9.25
2023-03-24T06:10:46.063Z,9.28
2023-03-24T06:13:12.806Z,9.27
2023-03-24T06:15:42.876Z,9.32
2023-03-24T06:18:33.520Z,9.37
2023-03-24T06:21:05.994Z,9.39
2023-03-24T06:23:33.948Z,9.41
2023-03-24T06:26:12.488Z,9.44
2023-03-24T06:28:51.760Z,9.48
2023-03-24T06:31:20.379Z,9.49
2023-03-24T06:33:49.000Z,9.50
2023-03-24T06:36:15.720Z,9.55
2023-03-24T06:38:43.913Z,9.59
2023-03-24T06:41:12.115Z,9.64
2023-03-24T06:43:38.701Z,9.68
2023-03-24T06:46:06.298Z,9.70
2023-03-24T06:48:33.934Z,9.67
2023-03-24T06:51:06.189Z,9.68
2023-03-24T06:53:32.976Z,9.67
2023-03-24T06:55:59.810Z,9.73
2023-03-24T06:58:33.917Z,9.79
2023-03-24T07:01:05.172Z,9.82
2023-03-24T07:03:33.874Z,9.86
2023-03-24T07:06:16.543Z,9.99
2023-03-24T07:08:44.719Z,10.09
2023-03-24T07:11:11.870Z,10.28
2023-03-24T07:13:44.675Z,10.44
2023-03-24T07:16:11.343Z,10.47
2023-03-24T07:18:39.596Z,10.49
2023-03-24T07:21:07.438Z,10.54
2023-03-24T07:23:35.328Z,11.61
2023-03-24T07:26:14.777Z,12.22
2023-03-24T07:28:47.430Z,11.80
2023-03-24T07:31:24.597Z,12.66
2023-03-24T07:34:00.398Z,12.16
2023-03-24T07:36:28.245Z,11.86
2023-03-24T07:38:56.662Z,11.44
2023-03-24T07:41:29.309Z,11.24
2023-03-24T07:43:59.548Z,11.33
2023-03-24T07:46:32.103Z,11.50
2023-03-24T07:49:05.728Z,11.89
2023-03-24T07:51:41.088Z,15.13
2023-03-24T07:54:19.325Z,14.37
2023-03-24T07:56:48.045Z,13.15
2023-03-24T07:59:15.608Z,14.26
2023-03-24T08:01:56.939Z,13.48
2023-03-24T08:04:38.311Z,13.30
2023-03-24T08:07:24.520Z,15.14
2023-03-24T08:09:51.030Z,17.36
2023-03-24T08:12:20.626Z,20.49
2023-03-24T08:14:47.405Z,21.38
2023-03-24T08:17:13.841Z,21.93
2023-03-24T08:19:52.062Z,22.83
2023-03-24T08:22:25.429Z,21.18
2023-03-24T08:24:51.896Z,22.58
2023-03-24T08:27:18.454Z,21.95
2023-03-24T08:29:45.046Z,22.66
2023-03-24T08:32:11.488Z,23.67
2023-03-24T08:34:37.979Z,20.12
2023-03-24T08:37:04.509Z,20.34
2023-03-24T08:39:32.345Z,18.40
2023-03-24T08:41:58.897Z,17.68
2023-03-24T08:44:25.561Z,17.36
2023-03-24T08:46:52.191Z,18.23
2023-03-24T08:49:18.841Z,19.27
2023-03-24T08:51:46.334Z,21.20
2023-03-24T08:54:13.416Z,21.95
2023-03-24T08:56:40.862Z,22.64
2023-03-24T08:59:07.465Z,21.47
2023-03-24T09:01:35.323Z,18.94
2023-03-24T09:04:02.416Z,17.01
2023-03-24T09:06:28.928Z,18.52
2023-03-24T09:08:55.801Z,21.17
2023-03-24T09:11:22.624Z,22.33
2023-03-24T09:13:49.435Z,18.44
2023-03-24T09:16:16.900Z,19.20
2023-03-24T09:18:44.416Z,21.04
2023-03-24T09:21:11.092Z,20.74
2023-03-24T09:23:37.651Z,19.16
2023-03-24T09:26:05.015Z,20.34
2023-03-24T09:28:31.773Z,21.01
2023-03-24T09:31:03.003Z,23.16
2023-03-24T09:33:30.332Z,20.88
2023-03-24T09:36:00.133Z,18.08
2023-03-24T09:38:27.423Z,16.84
2023-03-24T09:40:57.779Z,15.95
2023-03-24T09:43:49.922Z,20.29
2023-03-24T09:46:39.091Z,20.89
2023-03-24T09:49:06.170Z,20.89
2023-03-24T09:51:38.181Z,20.26
2023-03-24T09:54:07.652Z,19.36
2023-03-24T09:56:38.038Z,18.11
2023-03-24T09:59:07.517Z,20.13
2023-03-24T10:01:36.353Z,21.17
2023-03-24T10:04:04.484Z,21.15
2023-03-24T10:06:41.777Z,22.70
2023-03-24T10:09:28.800Z,22.39
2023-03-24T10:12:13.336Z,21.55
2023-03-24T10:15:01.312Z,21.04
2023-03-24T10:17:49.706Z,20.89
2023-03-24T10:20:33.596Z,18.36
2023-03-24T10:23:23.346Z,20.99
2023-03-24T10:26:05.502Z,21.59
2023-03-24T10:29:10.510Z,21.14
2023-03-24T10:31:38.755Z,20.76
2023-03-24T10:34:10.321Z,19.54
2023-03-24T10:36:39.260Z,18.39
2023-03-24T10:39:16.593Z,16.44
2023-03-24T10:41:47.202Z,17.74
2023-03-24T10:44:14.499Z,19.80
2023-03-24T10:46:46.989Z,19.00
2023-03-24T10:49:14.515Z,16.77
2023-03-24T10:52:01.303Z,15.64
2023-03-24T10:54:30.826Z,15.08
2023-03-24T10:57:00.558Z,17.82
2023-03-24T10:59:35.520Z,21.04
2023-03-24T11:02:14.079Z,21.41
2023-03-24T11:04:44.671Z,20.26
2023-03-24T11:07:17.485Z,18.04
2023-03-24T11:09:57.946Z,16.18
2023-03-24T11:12:30.480Z,15.25
2023-03-24T11:15:23.281Z,14.72
2023-03-24T11:18:11.127Z,14.49
2023-03-24T11:20:41.204Z,18.21
2023-03-24T11:23:17.990Z,18.11
2023-03-24T11:25:52.744Z,17.11
2023-03-24T11:28:26.295Z,16.18
2023-03-24T11:30:55.042Z,16.13
2023-03-24T11:33:35.248Z,15.63
2023-03-24T11:36:26.044Z,15.33
2023-03-24T11:39:10.938Z,14.61
2023-03-24T11:42:05.311Z,14.17
2023-03-24T11:44:36.212Z,13.99
2023-03-24T11:47:08.699Z,14.43
2023-03-24T11:49:42.951Z,14.81
2023-03-24T11:52:23.215Z,15.08
2023-03-24T11:54:49.859Z,14.92
2023-03-24T11:57:25.687Z,14.60
2023-03-24T12:00:03.674Z,14.32
2023-03-24T12:03:01.754Z,14.26
2023-03-24T12:05:36.850Z,14.29
2023-03-24T12:08:23.570Z,14.14
2023-03-24T12:11:04.269Z,13.97
2023-03-24T12:13:40.967Z,13.97
2023-03-24T12:16:43.530Z,14.09
2023-03-24T12:19:40.973Z,14.29
2023-03-24T12:22:41.354Z,14.54
2023-03-24T12:25:32.702Z,14.37
2023-03-24T12:28:11.165Z,13.98
2023-03-24T12:30:55.631Z,13.76
2023-03-24T12:33:44.855Z,13.87
2023-03-24T12:36:20.994Z,14.64
2023-03-24T12:38:53.501Z,15.59
2023-03-24T12:41:27.906Z,15.54
2023-03-24T12:44:10.354Z,15.13
2023-03-24T12:47:03.003Z,14.83
2023-03-24T12:49:47.203Z,14.61
2023-03-24T12:52:51.180Z,14.48
2023-03-24T12:55:43.427Z,14.15
2023-03-24T12:58:14.168Z,13.90
2023-03-24T13:00:58.377Z,13.63
2023-03-24T13:03:41.209Z,13.23
2023-03-24T13:06:23.895Z,13.08
2023-03-24T13:09:25.604Z,12.80
2023-03-24T13:12:04.352Z,12.84
2023-03-24T13:14:48.436Z,13.04
2023-03-24T13:17:48.137Z,13.23
2023-03-24T13:20:24.012Z,13.65
2023-03-24T13:22:51.775Z,13.65
2023-03-24T13:25:49.246Z,13.60
2023-03-24T13:28:24.706Z,13.87
2023-03-24T13:30:51.797Z,14.16
2023-03-24T13:33:24.900Z,14.62
2023-03-24T13:36:11.329Z,14.93
2023-03-24T13:38:46.455Z,15.12
2023-03-24T13:41:24.087Z,15.16
2023-03-24T13:43:57.381Z,15.06
2023-03-24T13:46:24.535Z,14.81
2023-03-24T13:48:55.263Z,14.70
2023-03-24T13:51:22.873Z,14.50
2023-03-24T13:54:11.335Z,14.28
2023-03-24T13:56:48.929Z,14.10
2023-03-24T13:59:56.902Z,13.92
2023-03-24T14:02:29.282Z,13.77
2023-03-24T14:04:58.574Z,13.61
2023-03-24T14:07:36.962Z,13.45
2023-03-24T14:10:23.390Z,13.23
2023-03-24T14:12:53.760Z,12.92
2023-03-24T14:15:22.553Z,12.69
2023-03-24T14:17:53.394Z,12.58
2023-03-24T14:20:35.749Z,12.39
2023-03-24T14:23:03.725Z,12.53
2023-03-24T14:25:32.644Z,12.85
2023-03-24T14:28:31.803Z,13.30
2023-03-24T14:31:21.289Z,13.28
2023-03-24T14:33:53.630Z,13.11
2023-03-24T14:36:30.375Z,13.07
2023-03-24T14:39:07.366Z,13.20
2023-03-24T14:41:39.056Z,13.24
2023-03-24T14:44:06.214Z,13.28
2023-03-24T14:46:40.455Z,13.16
2023-03-24T14:49:32.838Z,12.95
2023-03-24T14:52:36.538Z,13.31
2023-03-24T14:55:17.652Z,13.29
2023-03-24T14:57:47.635Z,13.35
2023-03-24T15:00:20.524Z,13.25
2023-03-24T15:02:51.339Z,13.07
2023-03-24T15:05:32.389Z,13.14
2023-03-24T15:08:00.468Z,13.32
2023-03-24T15:10:33.066Z,13.60
2023-03-24T15:12:59.722Z,13.75
2023-03-24T15:15:26.298Z,13.86
2023-03-24T15:17:53.009Z,13.64
2023-03-24T15:20:25.678Z,13.65
2023-03-24T15:22:55.187Z,13.86
2023-03-24T15:25:27.994Z,13.68
2023-03-24T15:27:57.575Z,13.56
2023-03-24T15:30:25.252Z,13.48
2023-03-24T15:32:52.149Z,13.29
2023-03-24T15:35:22.290Z,13.21
2023-03-24T15:37:54.119Z,13.46
2023-03-24T15:40:26.650Z,13.58
2023-03-24T15:43:01.059Z,13.53
2023-03-24T15:45:31.166Z,13.36
2023-03-24T15:48:02.656Z,13.35
2023-03-24T15:50:40.886Z,13.36
2023-03-24T15:53:25.819Z,13.38
2023-03-24T15:56:06.925Z,13.36
2023-03-24T15:58:45.609Z,13.26
2023-03-24T16:01:17.233Z,13.15
2023-03-24T16:03:48.327Z,13.11
2023-03-24T16:06:16.601Z,13.08
2023-03-24T16:08:44.070Z,13.18
2023-03-24T16:11:14.606Z,13.15
2023-03-24T16:13:43.592Z,13.09
2023-03-24T16:16:13.043Z,12.97
2023-03-24T16:18:42.034Z,12.95
2023-03-24T16:21:16.656Z,13.20
2023-03-24T16:23:44.465Z,13.29
2023-03-24T16:26:22.726Z,13.30
2023-03-24T16:28:50.219Z,13.53
2023-03-24T16:31:24.646Z,13.47
2023-03-24T16:33:57.291Z,13.22
2023-03-24T16:36:27.905Z,13.06
2023-03-24T16:38:56.679Z,12.88
2023-03-24T16:41:24.026Z,12.82
2023-03-24T16:43:50.924Z,12.62
2023-03-24T16:46:22.792Z,12.47
2023-03-24T16:48:49.333Z,12.37
2023-03-24T16:51:16.682Z,12.33
2023-03-24T16:53:45.200Z,12.26
2023-03-24T16:56:18.379Z,12.26
2023-03-24T16:58:46.314Z,12.08
2023-03-24T17:01:33.272Z,11.88
2023-03-24T17:04:09.536Z,11.73
2023-03-24T17:06:38.939Z,11.53
2023-03-24T17:09:05.967Z,11.39
2023-03-24T17:11:36.399Z,11.24
2023-03-24T17:14:05.675Z,11.15
2023-03-24T17:16:36.709Z,11.06
2023-03-24T17:19:04.680Z,10.94
2023-03-24T17:21:33.804Z,10.85
2023-03-24T17:24:00.656Z,10.81
2023-03-24T17:26:27.141Z,10.83
2023-03-24T17:28:53.706Z,10.88
2023-03-24T17:31:20.368Z,10.89
2023-03-24T17:33:47.609Z,10.86
2023-03-24T17:36:16.369Z,10.84
2023-03-24T17:38:43.895Z,10.73
2023-03-24T17:41:11.033Z,10.68
2023-03-24T17:43:37.588Z,10.63
2023-03-24T17:46:04.256Z,10.56
2023-03-24T17:48:31.440Z,10.51
2023-03-24T17:50:57.970Z,10.50
2023-03-24T17:53:28.169Z,10.57
2023-03-24T17:55:57.429Z,10.67
2023-03-24T17:58:29.290Z,10.72
2023-03-24T18:00:58.203Z,10.70
2023-03-24T18:03:25.844Z,10.67
2023-03-24T18:05:52.663Z,10.60
2023-03-24T18:08:19.421Z,10.62
2023-03-24T18:10:47.639Z,10.58
2023-03-24T18:13:14.346Z,10.51
2023-03-24T18:15:42.777Z,10.48
2023-03-24T18:18:09.331Z,10.42
2023-03-24T18:20:36.629Z,10.33
2023-03-24T18:23:04.304Z,10.30
2023-03-24T18:25:32.100Z,10.27
2023-03-24T18:27:58.598Z,10.22
2023-03-24T18:30:25.552Z,10.17
2023-03-24T18:32:56.074Z,10.17
2023-03-24T18:35:22.632Z,10.13
2023-03-24T18:37:49.323Z,10.09
2023-03-24T18:40:16.204Z,10.03
2023-03-24T18:42:42.895Z,10.01
2023-03-24T18:45:17.212Z,9.94
2023-03-24T18:47:45.751Z,9.93
2023-03-24T18:50:12.676Z,9.92
2023-03-24T18:52:39.827Z,9.85
2023-03-24T18:55:07.890Z,9.82
2023-03-24T18:57:37.231Z,9.79
2023-03-24T19:00:07.194Z,9.77
2023-03-24T19:02:34.043Z,9.71
2023-03-24T19:05:02.478Z,9.65
2023-03-24T19:07:29.263Z,9.58
2023-03-24T19:10:00.413Z,9.49
2023-03-24T19:12:31.942Z,9.45
2023-03-24T19:15:08.733Z,9.44
2023-03-24T19:17:36.143Z,9.37
2023-03-24T19:20:07.261Z,9.36
2023-03-24T19:22:33.874Z,9.35
2023-03-24T19:25:01.318Z,9.35
2023-03-24T19:27:28.034Z,9.32
2023-03-24T19:29:54.630Z,9.26
2023-03-24T19:32:21.221Z,9.23
2023-03-24T19:34:48.078Z,9.18
2023-03-24T19:37:14.614Z,9.20
2023-03-24T19:39:41.045Z,9.24
2023-03-24T19:42:14.953Z,9.25
2023-03-24T19:44:41.884Z,9.25
2023-03-24T19:47:10.129Z,9.25
2023-03-24T19:49:41.048Z,9.27
2023-03-24T19:52:07.510Z,9.26
2023-03-24T19:54:33.959Z,9.25
2023-03-24T19:57:00.794Z,9.27
2023-03-24T19:59:36.969Z,9.27
2023-03-24T20:02:15.377Z,9.28
2023-03-24T20:04:55.011Z,9.33
2023-03-24T20:07:26.413Z,9.33
2023-03-24T20:10:06.626Z,9.35
2023-03-24T20:12:33.922Z,9.41
2023-03-24T20:15:06.806Z,9.46
2023-03-24T20:17:37.444Z,9.36
2023-03-24T20:20:08.901Z,9.35
2023-03-24T20:22:37.393Z,9.37
2023-03-24T20:25:05.703Z,9.35
2023-03-24T20:27:35.835Z,9.34
2023-03-24T20:30:03.726Z,9.32
2023-03-24T20:32:30.368Z,9.28
2023-03-24T20:35:07.781Z,9.26
2023-03-24T20:37:36.001Z,9.19
2023-03-24T20:40:05.382Z,9.22
2023-03-24T20:42:36.772Z,9.30
2023-03-24T20:45:04.604Z,9.39
2023-03-24T20:47:31.525Z,9.34
2023-03-24T20:49:59.675Z,9.21
2023-03-24T20:52:29.261Z,9.22
2023-03-24T20:54:56.382Z,9.14
2023-03-24T20:57:25.618Z,9.13
2023-03-24T20:59:52.262Z,9.11
2023-03-24T21:02:18.937Z,9.11
2023-03-24T21:04:45.696Z,9.10
2023-03-24T21:07:12.206Z,9.06
2023-03-24T21:09:39.091Z,9.04
2023-03-24T21:12:06.497Z,9.02
2023-03-24T21:14:33.615Z,9.08
2023-03-24T21:17:00.598Z,9.08
2023-03-24T21:19:27.624Z,9.06
2023-03-24T21:21:56.401Z,9.00
2023-03-24T21:24:24.064Z,8.98
2023-03-24T21:26:50.928Z,8.96
2023-03-24T21:29:17.629Z,9.02
2023-03-24T21:31:44.181Z,9.10
2023-03-24T21:34:11.259Z,9.17
2023-03-24T21:36:38.481Z,9.21
2023-03-24T21:39:07.369Z,9.24
2023-03-24T21:41:33.928Z,9.36
2023-03-24T21:44:00.804Z,9.43
2023-03-24T21:46:27.952Z,9.45
2023-03-24T21:48:59.508Z,9.49
2023-03-24T21:51:36.428Z,9.52
2023-03-24T21:54:06.376Z,9.62
2023-03-24T21:56:34.654Z,9.65
2023-03-24T21:59:01.320Z,9.60
2023-03-24T22:01:27.974Z,9.51
2023-03-24T22:03:54.891Z,9.51
2023-03-24T22:06:22.741Z,9.44
2023-03-24T22:08:50.552Z,9.48
2023-03-24T22:11:18.954Z,9.53
2023-03-24T22:13:46.303Z,9.53
2023-03-24T22:16:13.697Z,9.51
2023-03-24T22:18:40.385Z,9.46
2023-03-24T22:21:08.907Z,9.47
2023-03-24T22:23:39.131Z,9.44
2023-03-24T22:26:08.439Z,9.38
2023-03-24T22:28:36.149Z,9.33
2023-03-24T22:31:06.012Z,9.27
2023-03-24T22:33:32.694Z,9.26
2023-03-24T22:36:00.915Z,9.33
2023-03-24T22:38:28.333Z,9.40
2023-03-24T22:40:59.785Z,9.44
2023-03-24T22:43:27.242Z,9.49
2023-03-24T22:45:53.890Z,9.57
2023-03-24T22:48:21.129Z,9.59
2023-03-24T22:50:48.085Z,9.60
2023-03-24T22:55:42.280Z,9.61
2023-03-24T22:58:08.948Z,9.64
2023-03-24T23:00:35.561Z,9.63
2023-03-24T23:03:02.013Z,9.65
2023-03-24T23:05:28.890Z,9.63
2023-03-24T23:07:55.854Z,9.62
2023-03-24T23:10:22.338Z,9.61
2023-03-24T23:12:51.791Z,9.62
2023-03-24T23:15:18.582Z,9.62
2023-03-24T23:17:45.939Z,9.64
2023-03-24T23:20:13.020Z,9.62
2023-03-24T23:22:39.501Z,9.61
2023-03-24T23:25:06.939Z,9.58
2023-03-24T23:27:38.111Z,9.57
2023-03-24T23:30:06.998Z,9.56
2023-03-24T23:32:35.050Z,9.55
2023-03-24T23:35:02.887Z,9.56
2023-03-24T23:37:33.120Z,9.58
2023-03-24T23:40:09.460Z,9.56
2023-03-24T23:42:37.132Z,9.54
2023-03-24T23:45:08.049Z,9.54
2023-03-24T23:47:36.486Z,9.55
2023-03-24T23:50:06.198Z,9.54
2023-03-24T23:52:33.601Z,9.52
2023-03-24T23:55:02.136Z,9.49
2023-03-24T23:57:29.297Z,9.47
2023-03-24T23:59:55.774Z,9.46
